Aérodrome :
LOGIN :

S'inscrire | Disclaimer

   EN    FR    IT 

 










Légende :    VFR   VFR Marginal   IFR   IFR Intensif   IFR Très Intensif
Visi : 
Plafond : 
>= 8 km
>= 3000ft
5 à 8 km
1000 à 3000 ft
1500m à 5 km
500 à 1000 ft
800 à 1500m
200 à 500 ft
< 800m
< 200 ft
Symboles :   Orages  Brouillard  Fortes neiges  Fortes précipitations  Vent > 20 kt
SIGMETs :   Divers  Orages  Givrage  Turbulence  Onde Orograph.  Cendres Volcan.







- Altitude de l'aérodrome : 125 ft
- Code IATA : MGL


EDLN - Mönchengladbach

DERNIER METAR :
  • 161450Z 27014KT 230V310 9999 VCSH SCT030CB 04/01 Q0994

METARs EXPIRÉS :
  • 161420Z 27009KT 220V310 9999 VCSH SCT028CB 05/01 Q0994
  • 161350Z 25007KT 220V280 9999 VCSH SCT025CB 05/02 Q0994
  • 161320Z 28008KT 230V310 9999 SCT025TCU 05/01 Q0994
  • 161250Z 24006KT 160V280 9999 VCSH SCT043TCU 04/03 Q0994
  • 161220Z 26007KT 220V310 9999 VCSH SCT025TCU SCT120 04/03 Q0994

TAF TAF EDLN
Valide du 16 à 15h jusqu'au 17 à 00h UTC


161400Z 1615/1624 25010KT 9999 SCT025
TEMPO 1615/1617 27015G30KT SHRA BKN012CB
PROB30
TEMPO 1622/1624 28015G30KT SHRASN BKN015CB
Pas de NOTAMs connus pour ce terrain.
1 SIGMET publié pour la FIR Langen (EDGG) :
 
Turbulence forte
EDGG SIGMET 7 VALID 161400/161600 EDZF
EDGG LANGEN FIR SEV TURB FCST S OF N4900 SFC/FL060 STNR WKN=



MET'MAP, la Météo Aéronautique d'un coup d'oeil ! - Copyright ORBIFLY Décembre 2007 - Disclaimer

ORBIFLY MET'MAP TEAM :

Programmation & Développement : Alexandra Zaïnal
Conception & Développement : Baudouin d'Aumeries
Co-Programmation & Développement : Marc-Olivier Méhu
Soutien technique & logistique : Manuel Goepfert

Contact : metmap@orbifly.com




SOURCES & CREDITS :

   NOAA